Country
Station

 

Weather  for  Boryspil  -  Ukraine    Ukraine

  
12 °C (54 °F)
    
 
 

Current METAR for Boryspil is :

UKBB 021100Z 17005MPS 9999 BKN040 12/07 Q1006 R18L/CLRD// NOSIG

 

This is a report for Boryspil - Ukraine.
 
The report was made 24 minutes ago, at 11:00 UTC .
The wind was blowing at a speed of 5 meters per second (11.2 miles per hour) from south (170°).
 
The temperature was 12 °C (54 °F), with a dew-point at 7 °C (45 °F).
The atmospheric pressure was 1006 hPa (29.71 inHg).
The relative humidity was 71.4%.
 
There were broken clouds at a height of 1219 meters (4000 feet).
 
The overall visibility was greater than 10 kilometers (6.2 miles).
 

 
 
 
 

Country :   A   B   C   D   E   F   G   H   I   J   K   L   M   N   O   P   Q   R   S   T   U   V   W   Y   Z

 

Site Info  |  Disclaimer  |  Credits  |  Privacy
Contact us  |  Add to favorites
© 2013-2020 METARs - All rights reserved